S. Bass — WDJ2053 — position and weather

sailwx.info

Track history (hours):
 
Tides and Currents Weather Stations Pressure Air Temp Water Temp Dewpoint Dewpoint Depression Visibility Wind Speed Wind Dir Waves Ship Positions

S. Bass

Owner: Pacific Maritime Freight, Inc., San Diego, CA. More information available from US FCC via Universal Licensing System and Coast Guard Vessel Documentation Center.

Last reported at 2017-Nov-23 10:14 UTC. Time now 2017-Nov-24 16:40 UTC.
Position N 38°03' W 121°54'.

Length 12 m; draft 2.5 m.

Type: Tug. MMSI: 367754810.

Date/timePositionNaut miles runAvg speedWind from/ knotsBaromVisibWave heightAir tempDewpointWater temp
2017-Nov-23 10:14N 38°03' W 121°54'11 5.5
2017-Nov-23 08:15N 38°02' W 122°08'3 4.9
2017-Nov-23 07:42N 38°03' W 122°11'1 4.6
2017-Nov-23 07:30N 38°03' W 122°12'2 4.2
2017-Nov-23 07:00N 38°04' W 122°15'2 3.8
2017-Nov-23 06:22N 38°03' W 122°18'1 3.9
2017-Nov-23 06:00N 38°03' W 122°19'2 4.6
2017-Nov-23 05:30N 38°02' W 122°22'2 4.9
2017-Nov-23 05:00N 38°00' W 122°24'3 4.6
2017-Nov-23 04:18N 37°57' W 122°26'2 5.1
2017-Nov-23 04:00N 37°55' W 122°25'2 5.0
2017-Nov-23 03:30N 37°53' W 122°25'3 6.1
2017-Nov-23 03:00N 37°50' W 122°24'4 7.9
2017-Nov-23 02:30N 37°46' W 122°23'1 2.5
2017-Nov-23 02:00N 37°45' W 122°22'3 6.9
2017-Nov-23 01:30N 37°48' W 122°24'0 0.9
2017-Nov-23 01:00N 37°49' W 122°24'0 0.0
2017-Nov-23 00:30N 37°49' W 122°24'0 0.0
2017-Nov-23 00:00N 37°49' W 122°24'0 0.0
2017-Nov-22 23:30N 37°49' W 122°24'0 0.0
2017-Nov-22 23:00N 37°49' W 122°24'0 0.0
2017-Nov-22 22:30N 37°49' W 122°24'0 0.0
2017-Nov-22 22:00N 37°49' W 122°24'0 0.0
2017-Nov-22 21:30N 37°49' W 122°24'0 0.0
2017-Nov-22 21:00N 37°49' W 122°24'0 0.0
2017-Nov-22 20:30N 37°49' W 122°24'0 0.0
2017-Nov-22 20:00N 37°49' W 122°24'0 0.2
2017-Nov-22 19:30N 37°49' W 122°24'  
2017-Nov-19 22:05N 38°02' W 122°09'3 6.8
2017-Nov-19 21:38N 38°03' W 122°12'1 7.2
2017-Nov-19 21:29N 38°04' W 122°13'4 7.3
2017-Nov-19 20:58N 38°03' W 122°18'3 7.1
2017-Nov-19 20:30N 38°02' W 122°22'6 6.6
2017-Nov-19 19:35N 37°56' W 122°26'1 7.2
2017-Nov-19 19:29N 37°56' W 122°26'3 7.2
2017-Nov-19 19:01N 37°52' W 122°24'3 5.9
2017-Nov-19 18:30N 37°50' W 122°23'2 4.5
2017-Nov-19 18:01N 37°47' W 122°23'2 4.3
2017-Nov-19 17:30N 37°45' W 122°22'1 2.1
2017-Nov-19 17:01N 37°46' W 122°23'4 8.8
2017-Nov-19 16:30N 37°51' W 122°24'4 7.3
2017-Nov-19 16:00N 37°54' W 122°25'4 6.9
2017-Nov-19 15:29N 37°58' W 122°26'4 7.3
2017-Nov-19 15:00N 38°01' W 122°24'4 7.9
2017-Nov-19 14:30N 38°03' W 122°19'5 8.8
2017-Nov-19 14:00N 38°04' W 122°14'4 8.2
2017-Nov-19 13:30N 38°02' W 122°09'1 0.2
2017-Nov-19 07:19N 38°02' W 122°08'3 5.6
2017-Nov-19 06:49N 38°03' W 122°11'2 6.2
2017-Nov-19 06:30N 38°04' W 122°13'3 5.8
2017-Nov-19 06:00N 38°03' W 122°17'3 5.6
2017-Nov-19 05:30N 38°02' W 122°20'3 5.9
2017-Nov-19 04:57N 38°01' W 122°24'3 6.0
2017-Nov-19 04:25N 37°58' W 122°26'2 5.7
2017-Nov-19 04:00N 37°55' W 122°25'3 5.6
2017-Nov-19 03:30N 37°53' W 122°25'2 4.9
2017-Nov-19 03:01N 37°50' W 122°24'3 5.9
2017-Nov-19 02:31N 37°48' W 122°23'3 5.3
2017-Nov-19 02:00N 37°45' W 122°22'0 0.6
2017-Nov-19 01:30N 37°45' W 122°23'0 0.0
2017-Nov-19 01:00N 37°45' W 122°23'0 0.0
2017-Nov-19 00:30N 37°45' W 122°23'0 0.0
2017-Nov-19 00:00N 37°45' W 122°23'0 0.0
2017-Nov-18 23:30N 37°45' W 122°23'0 0.0
2017-Nov-18 23:00N 37°45' W 122°23'0 0.0
2017-Nov-18 22:31N 37°45' W 122°23'0 0.0
2017-Nov-18 22:01N 37°45' W 122°23'0 0.0
2017-Nov-18 21:30N 37°45' W 122°23'0 0.0
2017-Nov-18 21:00N 37°45' W 122°23'0 0.0
2017-Nov-18 20:31N 37°45' W 122°23'0 0.0
2017-Nov-18 20:01N 37°45' W 122°23'0 0.0
2017-Nov-18 19:30N 37°45' W 122°23'0 0.0
2017-Nov-18 19:00N 37°45' W 122°23'0 0.0
2017-Nov-18 18:31N 37°45' W 122°23'0 0.0
2017-Nov-18 18:01N 37°45' W 122°23'3 6.0
2017-Nov-18 17:30N 37°48' W 122°24'1 1.5
2017-Nov-18 17:00N 37°49' W 122°24'0 0.6
2017-Nov-18 16:30N 37°48' W 122°24'3 5.4
2017-Nov-18 16:00N 37°46' W 122°23'0 0.7
2017-Nov-18 15:30N 37°46' W 122°23'4 8.0
2017-Nov-18 15:00N 37°50' W 122°23'4 7.4
2017-Nov-18 14:30N 37°54' W 122°25'4 7.1
2017-Nov-18 14:00N 37°57' W 122°26'4 7.5
2017-Nov-18 13:30N 38°01' W 122°24'4 8.0
2017-Nov-18 12:59N 38°03' W 122°19'4 8.1
2017-Nov-18 12:30N 38°04' W 122°15'4 7.5
2017-Nov-18 12:00N 38°02' W 122°10'1 0.2
2017-Nov-18 04:54N 38°02' W 122°09'3 4.6
2017-Nov-18 04:19N 38°03' W 122°12'1 4.4
2017-Nov-18 04:00N 38°04' W 122°13'2 3.6
2017-Nov-18 03:30N 38°04' W 122°15'2 3.7
2017-Nov-18 03:00N 38°03' W 122°18'3 3.6
2017-Nov-18 02:16N 38°02' W 122°21'1 3.4
2017-Nov-18 02:00N 38°02' W 122°22'2 4.0
2017-Nov-18 01:30N 38°00' W 122°24'4 4.1
2017-Nov-18 00:33N 37°57' W 122°26'0 4.8
2017-Nov-18 00:27N 37°56' W 122°26'2 4.4
2017-Nov-18 00:00N 37°55' W 122°25'2 4.4
2017-Nov-17 23:30N 37°52' W 122°25'3 5.6
2017-Nov-17 23:00N 37°50' W 122°24'3 6.4
2017-Nov-17 22:31N 37°47' W 122°23'2 3.6
2017-Nov-17 22:01N 37°45' W 122°23'0 0.5
2017-Nov-17 21:30N 37°45' W 122°23'0 0.0
2017-Nov-17 21:01N 37°45' W 122°23'0 0.0
2017-Nov-17 20:31N 37°45' W 122°23'0 0.0
2017-Nov-17 20:01N 37°45' W 122°23'0 0.0
2017-Nov-17 19:30N 37°45' W 122°23'0 0.0
2017-Nov-17 19:00N 37°45' W 122°23'0 0.0
2017-Nov-17 18:31N 37°45' W 122°23'0 0.0
2017-Nov-17 18:00N 37°45' W 122°23'0 0.0
2017-Nov-17 17:30N 37°45' W 122°23'0 0.0
2017-Nov-17 17:01N 37°45' W 122°23'0 0.0
2017-Nov-17 16:31N 37°45' W 122°23'3 5.4
2017-Nov-17 16:01N 37°48' W 122°23'4 8.1
2017-Nov-17 15:30N 37°52' W 122°24'3 6.7
2017-Nov-17 14:59N 37°55' W 122°25'3 6.6
2017-Nov-17 14:30N 37°58' W 122°26'4 7.1
2017-Nov-17 13:53N 38°01' W 122°22'3 8.6
2017-Nov-17 13:30N 38°03' W 122°18'5 0.7
2017-Nov-17 06:52N 38°03' W 122°12'5 7.9
2017-Nov-17 06:15N 38°03' W 122°18'3 7.1
2017-Nov-17 05:49N 38°02' W 122°22'3 7.5
2017-Nov-17 05:27N 37°60' W 122°25'4 7.9
2017-Nov-17 04:59N 37°56' W 122°26'4 7.7
2017-Nov-17 04:30N 37°53' W 122°24'3 6.1
2017-Nov-17 04:00N 37°50' W 122°24'2 4.7
2017-Nov-17 03:31N 37°48' W 122°23'2 4.7
2017-Nov-17 03:00N 37°45' W 122°22'0 0.5
2017-Nov-17 02:30N 37°45' W 122°23'0 0.0
2017-Nov-17 02:01N 37°45' W 122°23'0 0.0
2017-Nov-17 01:30N 37°45' W 122°23'0 0.0
2017-Nov-17 01:00N 37°45' W 122°23'0 0.0
2017-Nov-17 00:30N 37°45' W 122°23'0 0.0
2017-Nov-17 00:01N 37°45' W 122°23'0 0.0
2017-Nov-16 23:30N 37°45' W 122°23'0 0.0
2017-Nov-16 23:01N 37°45' W 122°23'0 0.0
2017-Nov-16 22:31N 37°45' W 122°23'0 0.0
2017-Nov-16 22:01N 37°45' W 122°23'1 2.5
2017-Nov-16 21:30N 37°46' W 122°23'3 5.3
2017-Nov-16 21:00N 37°49' W 122°24'0 0.0
2017-Nov-16 20:30N 37°49' W 122°24'0 0.0
2017-Nov-16 20:00N 37°49' W 122°24'0 0.0
2017-Nov-16 19:30N 37°49' W 122°24'0 0.0
2017-Nov-16 19:00N 37°49' W 122°24'0 0.0
2017-Nov-16 18:30N 37°49' W 122°24'3 6.3
2017-Nov-16 18:00N 37°46' W 122°23'1 1.4
2017-Nov-16 17:31N 37°45' W 122°23'0 0.0
2017-Nov-16 17:00N 37°45' W 122°23'0 0.2
2017-Nov-16 16:30N 37°45' W 122°23'0 0.0
2017-Nov-16 16:00N 37°45' W 122°23'0 0.0
2017-Nov-16 15:30N 37°45' W 122°23'0 0.0
2017-Nov-16 15:00N 37°45' W 122°23'0 0.0
2017-Nov-16 14:30N 37°45' W 122°23'0 0.0
2017-Nov-16 14:00N 37°45' W 122°23'0 0.0
2017-Nov-16 13:30N 37°45' W 122°23'0 0.0
2017-Nov-16 13:00N 37°45' W 122°23'0 0.0
2017-Nov-16 12:30N 37°45' W 122°23'0 0.0
2017-Nov-16 12:00N 37°45' W 122°23'2 3.7
2017-Nov-16 11:31N 37°47' W 122°23'3 5.3
2017-Nov-16 11:00N 37°49' W 122°24'3 6.5
2017-Nov-16 10:30N 37°53' W 122°25'4 7.9
2017-Nov-16 10:00N 37°56' W 122°27'6 7.3
2017-Nov-16 09:08N 38°02' W 122°22'3 5.9
2017-Nov-16 08:43N 38°03' W 122°19'2 5.7
2017-Nov-16 08:22N 38°03' W 122°17'3 5.2
2017-Nov-16 07:51N 38°04' W 122°14'4 0.5
2017-Nov-15 23:26N 38°02' W 122°09'2 4.0
2017-Nov-15 22:50N 38°03' W 122°12'1 3.8
2017-Nov-15 22:30N 38°04' W 122°13'4 4.5
2017-Nov-15 21:39N 38°03' W 122°18'3 5.1
2017-Nov-15 21:05N 38°02' W 122°22'0 5.4
2017-Nov-15 21:00N 38°02' W 122°22'4 4.9
2017-Nov-15 20:09N 37°59' W 122°26'2 5.3
2017-Nov-15 19:43N 37°56' W 122°26'1 6.0
2017-Nov-15 19:30N 37°55' W 122°25'3 6.5
2017-Nov-15 19:00N 37°52' W 122°24'3 6.8
2017-Nov-15 18:30N 37°49' W 122°23'3 6.9
2017-Nov-15 18:00N 37°45' W 122°23'0 0.2
2017-Nov-15 17:31N 37°45' W 122°23'0 0.0
2017-Nov-15 17:01N 37°45' W 122°23'0 0.0
2017-Nov-15 16:30N 37°45' W 122°23'0 0.0
2017-Nov-15 16:00N 37°45' W 122°23'0 0.0
2017-Nov-15 15:30N 37°45' W 122°23'0 0.0
2017-Nov-15 15:00N 37°45' W 122°23'0 0.0
2017-Nov-15 14:30N 37°45' W 122°23'3 6.4
2017-Nov-15 14:00N 37°48' W 122°23'4 8.1
2017-Nov-15 13:30N 37°52' W 122°24'4 7.1
2017-Nov-15 13:00N 37°56' W 122°26'3 6.9
2017-Nov-15 12:30N 37°59' W 122°25'4 7.7
2017-Nov-15 11:57N 38°02' W 122°21'4 9.5
2017-Nov-15 11:30N 38°04' W 122°16'6 0.9
2017-Nov-15 04:37N 38°02' W 122°09'2 5.9
2017-Nov-15 04:13N 38°03' W 122°11'1 6.2
2017-Nov-15 04:00N 38°04' W 122°13'3 6.1
2017-Nov-15 03:30N 38°03' W 122°17'3 5.7
2017-Nov-15 02:53N 38°02' W 122°21'3 6.1
2017-Nov-15 02:22N 38°00' W 122°24'4 5.8
2017-Nov-15 01:40N 37°56' W 122°26'2 6.9
2017-Nov-15 01:24N 37°55' W 122°25'2 5.2
2017-Nov-15 01:00N 37°53' W 122°25'2 5.0
2017-Nov-15 00:30N 37°50' W 122°24'3 6.1
2017-Nov-15 00:00N 37°47' W 122°23'2 4.8
2017-Nov-14 23:31N 37°45' W 122°23'2 3.2
2017-Nov-14 23:00N 37°46' W 122°22'3 6.3
2017-Nov-14 22:30N 37°49' W 122°19'1 1.7
2017-Nov-14 22:01N 37°49' W 122°18'0 0.0
2017-Nov-14 21:30N 37°49' W 122°18'0 0.0
2017-Nov-14 21:00N 37°49' W 122°18'0 0.0
2017-Nov-14 20:30N 37°49' W 122°18'0 0.0
2017-Nov-14 20:01N 37°49' W 122°18'0 0.0
2017-Nov-14 19:30N 37°49' W 122°18'2 3.8
2017-Nov-14 19:00N 37°49' W 122°21'3 6.2
2017-Nov-14 18:31N 37°51' W 122°23'3 6.7
2017-Nov-14 18:00N 37°54' W 122°25'4 5.9
2017-Nov-14 17:19N 37°58' W 122°26'2 5.6
2017-Nov-14 16:55N 37°60' W 122°25'3 5.5
2017-Nov-14 16:25N 38°02' W 122°22'2 5.5
2017-Nov-14 16:00N 38°03' W 122°19'3 6.1
2017-Nov-14 15:30N 38°04' W 122°16'3 6.2
2017-Nov-14 15:00N 38°04' W 122°12'3 0.4
2017-Nov-14 08:13N 38°02' W 122°09'2 5.3
2017-Nov-14 07:46N 38°03' W 122°12'2 5.8
2017-Nov-14 07:30N 38°04' W 122°14'4 6.3
2017-Nov-14 06:56N 38°03' W 122°18'3 6.7
2017-Nov-14 06:28N 38°02' W 122°22'5 6.6
2017-Nov-14 05:42N 37°58' W 122°26'2 6.4
2017-Nov-14 05:25N 37°56' W 122°27'3 6.6
2017-Nov-14 05:00N 37°54' W 122°26'3 6.9
2017-Nov-14 04:30N 37°51' W 122°24'3 5.7
2017-Nov-14 04:01N 37°48' W 122°23'2 4.9
2017-Nov-14 03:30N 37°45' W 122°22'0 0.7
2017-Nov-14 03:00N 37°45' W 122°23'0 0.0
2017-Nov-14 02:30N 37°45' W 122°23'0 0.0
2017-Nov-14 02:00N 37°45' W 122°23'0 0.0
2017-Nov-14 01:30N 37°45' W 122°23'0 0.0
2017-Nov-14 01:00N 37°45' W 122°23'0 0.0
2017-Nov-14 00:30N 37°45' W 122°23'1 2.6
2017-Nov-14 00:00N 37°46' W 122°23'4 7.4
2017-Nov-13 23:30N 37°50' W 122°24'4 8.0
2017-Nov-13 23:00N 37°54' W 122°25'7 8.0
2017-Nov-13 22:07N 38°01' W 122°24'1 8.9
2017-Nov-13 21:57N 38°02' W 122°22'  
Track history (hours):
 
Tides and Currents Weather Stations Pressure Air Temp Water Temp Dewpoint Dewpoint Depression Visibility Wind Speed Wind Dir Waves Ship Positions

S. Bass

Owner: Pacific Maritime Freight, Inc., San Diego, CA. More information available from US FCC via Universal Licensing System and Coast Guard Vessel Documentation Center.

Last reported at 2017-Nov-23 10:14 UTC. Time now 2017-Nov-24 16:40 UTC.
Position N 38°03' W 121°54'.

Length 12 m; draft 2.5 m.

Type: Tug. MMSI: 367754810.

Date/timePositionNaut miles runAvg speedWind from/ knotsBaromVisibWave heightAir tempDewpointWater temp
2017-Nov-23 10:14N 38°03' W 121°54'11 5.5
2017-Nov-23 08:15N 38°02' W 122°08'3 4.9
2017-Nov-23 07:42N 38°03' W 122°11'1 4.6
2017-Nov-23 07:30N 38°03' W 122°12'2 4.2
2017-Nov-23 07:00N 38°04' W 122°15'2 3.8
2017-Nov-23 06:22N 38°03' W 122°18'1 3.9
2017-Nov-23 06:00N 38°03' W 122°19'2 4.6
2017-Nov-23 05:30N 38°02' W 122°22'2 4.9
2017-Nov-23 05:00N 38°00' W 122°24'3 4.6
2017-Nov-23 04:18N 37°57' W 122°26'2 5.1
2017-Nov-23 04:00N 37°55' W 122°25'2 5.0
2017-Nov-23 03:30N 37°53' W 122°25'3 6.1
2017-Nov-23 03:00N 37°50' W 122°24'4 7.9
2017-Nov-23 02:30N 37°46' W 122°23'1 2.5
2017-Nov-23 02:00N 37°45' W 122°22'3 6.9
2017-Nov-23 01:30N 37°48' W 122°24'0 0.9
2017-Nov-23 01:00N 37°49' W 122°24'0 0.0
2017-Nov-23 00:30N 37°49' W 122°24'0 0.0
2017-Nov-23 00:00N 37°49' W 122°24'0 0.0
2017-Nov-22 23:30N 37°49' W 122°24'0 0.0
2017-Nov-22 23:00N 37°49' W 122°24'0 0.0
2017-Nov-22 22:30N 37°49' W 122°24'0 0.0
2017-Nov-22 22:00N 37°49' W 122°24'0 0.0
2017-Nov-22 21:30N 37°49' W 122°24'0 0.0
2017-Nov-22 21:00N 37°49' W 122°24'0 0.0
2017-Nov-22 20:30N 37°49' W 122°24'0 0.0
2017-Nov-22 20:00N 37°49' W 122°24'0 0.2
2017-Nov-22 19:30N 37°49' W 122°24'  
2017-Nov-19 22:05N 38°02' W 122°09'3 6.8
2017-Nov-19 21:38N 38°03' W 122°12'1 7.2
2017-Nov-19 21:29N 38°04' W 122°13'4 7.3
2017-Nov-19 20:58N 38°03' W 122°18'3 7.1
2017-Nov-19 20:30N 38°02' W 122°22'6 6.6
2017-Nov-19 19:35N 37°56' W 122°26'1 7.2
2017-Nov-19 19:29N 37°56' W 122°26'3 7.2
2017-Nov-19 19:01N 37°52' W 122°24'3 5.9
2017-Nov-19 18:30N 37°50' W 122°23'2 4.5
2017-Nov-19 18:01N 37°47' W 122°23'2 4.3
2017-Nov-19 17:30N 37°45' W 122°22'1 2.1
2017-Nov-19 17:01N 37°46' W 122°23'4 8.8
2017-Nov-19 16:30N 37°51' W 122°24'4 7.3
2017-Nov-19 16:00N 37°54' W 122°25'4 6.9
2017-Nov-19 15:29N 37°58' W 122°26'4 7.3
2017-Nov-19 15:00N 38°01' W 122°24'4 7.9
2017-Nov-19 14:30N 38°03' W 122°19'5 8.8
2017-Nov-19 14:00N 38°04' W 122°14'4 8.2
2017-Nov-19 13:30N 38°02' W 122°09'1 0.2
2017-Nov-19 07:19N 38°02' W 122°08'3 5.6
2017-Nov-19 06:49N 38°03' W 122°11'2 6.2
2017-Nov-19 06:30N 38°04' W 122°13'3 5.8
2017-Nov-19 06:00N 38°03' W 122°17'3 5.6
2017-Nov-19 05:30N 38°02' W 122°20'3 5.9
2017-Nov-19 04:57N 38°01' W 122°24'3 6.0
2017-Nov-19 04:25N 37°58' W 122°26'2 5.7
2017-Nov-19 04:00N 37°55' W 122°25'3 5.6
2017-Nov-19 03:30N 37°53' W 122°25'2 4.9
2017-Nov-19 03:01N 37°50' W 122°24'3 5.9
2017-Nov-19 02:31N 37°48' W 122°23'3 5.3
2017-Nov-19 02:00N 37°45' W 122°22'0 0.6
2017-Nov-19 01:30N 37°45' W 122°23'0 0.0
2017-Nov-19 01:00N 37°45' W 122°23'0 0.0
2017-Nov-19 00:30N 37°45' W 122°23'0 0.0
2017-Nov-19 00:00N 37°45' W 122°23'0 0.0
2017-Nov-18 23:30N 37°45' W 122°23'0 0.0
2017-Nov-18 23:00N 37°45' W 122°23'0 0.0
2017-Nov-18 22:31N 37°45' W 122°23'0 0.0
2017-Nov-18 22:01N 37°45' W 122°23'0 0.0
2017-Nov-18 21:30N 37°45' W 122°23'0 0.0
2017-Nov-18 21:00N 37°45' W 122°23'0 0.0
2017-Nov-18 20:31N 37°45' W 122°23'0 0.0
2017-Nov-18 20:01N 37°45' W 122°23'0 0.0
2017-Nov-18 19:30N 37°45' W 122°23'0 0.0
2017-Nov-18 19:00N 37°45' W 122°23'0 0.0
2017-Nov-18 18:31N 37°45' W 122°23'0 0.0
2017-Nov-18 18:01N 37°45' W 122°23'3 6.0
2017-Nov-18 17:30N 37°48' W 122°24'1 1.5
2017-Nov-18 17:00N 37°49' W 122°24'0 0.6
2017-Nov-18 16:30N 37°48' W 122°24'3 5.4
2017-Nov-18 16:00N 37°46' W 122°23'0 0.7
2017-Nov-18 15:30N 37°46' W 122°23'4 8.0
2017-Nov-18 15:00N 37°50' W 122°23'4 7.4
2017-Nov-18 14:30N 37°54' W 122°25'4 7.1
2017-Nov-18 14:00N 37°57' W 122°26'4 7.5
2017-Nov-18 13:30N 38°01' W 122°24'4 8.0
2017-Nov-18 12:59N 38°03' W 122°19'4 8.1
2017-Nov-18 12:30N 38°04' W 122°15'4 7.5
2017-Nov-18 12:00N 38°02' W 122°10'1 0.2
2017-Nov-18 04:54N 38°02' W 122°09'3 4.6
2017-Nov-18 04:19N 38°03' W 122°12'1 4.4
2017-Nov-18 04:00N 38°04' W 122°13'2 3.6
2017-Nov-18 03:30N 38°04' W 122°15'2 3.7
2017-Nov-18 03:00N 38°03' W 122°18'3 3.6
2017-Nov-18 02:16N 38°02' W 122°21'1 3.4
2017-Nov-18 02:00N 38°02' W 122°22'2 4.0
2017-Nov-18 01:30N 38°00' W 122°24'4 4.1
2017-Nov-18 00:33N 37°57' W 122°26'0 4.8
2017-Nov-18 00:27N 37°56' W 122°26'2 4.4
2017-Nov-18 00:00N 37°55' W 122°25'2 4.4
2017-Nov-17 23:30N 37°52' W 122°25'3 5.6
2017-Nov-17 23:00N 37°50' W 122°24'3 6.4
2017-Nov-17 22:31N 37°47' W 122°23'2 3.6
2017-Nov-17 22:01N 37°45' W 122°23'0 0.5
2017-Nov-17 21:30N 37°45' W 122°23'0 0.0
2017-Nov-17 21:01N 37°45' W 122°23'0 0.0
2017-Nov-17 20:31N 37°45' W 122°23'0 0.0
2017-Nov-17 20:01N 37°45' W 122°23'0 0.0
2017-Nov-17 19:30N 37°45' W 122°23'0 0.0
2017-Nov-17 19:00N 37°45' W 122°23'0 0.0
2017-Nov-17 18:31N 37°45' W 122°23'0 0.0
2017-Nov-17 18:00N 37°45' W 122°23'0 0.0
2017-Nov-17 17:30N 37°45' W 122°23'0 0.0
2017-Nov-17 17:01N 37°45' W 122°23'0 0.0
2017-Nov-17 16:31N 37°45' W 122°23'3 5.4
2017-Nov-17 16:01N 37°48' W 122°23'4 8.1
2017-Nov-17 15:30N 37°52' W 122°24'3 6.7
2017-Nov-17 14:59N 37°55' W 122°25'3 6.6
2017-Nov-17 14:30N 37°58' W 122°26'4 7.1
2017-Nov-17 13:53N 38°01' W 122°22'3 8.6
2017-Nov-17 13:30N 38°03' W 122°18'5 0.7
2017-Nov-17 06:52N 38°03' W 122°12'5 7.9
2017-Nov-17 06:15N 38°03' W 122°18'3 7.1
2017-Nov-17 05:49N 38°02' W 122°22'3 7.5
2017-Nov-17 05:27N 37°60' W 122°25'4 7.9
2017-Nov-17 04:59N 37°56' W 122°26'4 7.7
2017-Nov-17 04:30N 37°53' W 122°24'3 6.1
2017-Nov-17 04:00N 37°50' W 122°24'2 4.7
2017-Nov-17 03:31N 37°48' W 122°23'2 4.7
2017-Nov-17 03:00N 37°45' W 122°22'0 0.5
2017-Nov-17 02:30N 37°45' W 122°23'0 0.0
2017-Nov-17 02:01N 37°45' W 122°23'0 0.0
2017-Nov-17 01:30N 37°45' W 122°23'0 0.0
2017-Nov-17 01:00N 37°45' W 122°23'0 0.0
2017-Nov-17 00:30N 37°45' W 122°23'0 0.0
2017-Nov-17 00:01N 37°45' W 122°23'0 0.0
2017-Nov-16 23:30N 37°45' W 122°23'0 0.0
2017-Nov-16 23:01N 37°45' W 122°23'0 0.0
2017-Nov-16 22:31N 37°45' W 122°23'0 0.0
2017-Nov-16 22:01N 37°45' W 122°23'1 2.5
2017-Nov-16 21:30N 37°46' W 122°23'3 5.3
2017-Nov-16 21:00N 37°49' W 122°24'0 0.0
2017-Nov-16 20:30N 37°49' W 122°24'0 0.0
2017-Nov-16 20:00N 37°49' W 122°24'0 0.0
2017-Nov-16 19:30N 37°49' W 122°24'0 0.0
2017-Nov-16 19:00N 37°49' W 122°24'0 0.0
2017-Nov-16 18:30N 37°49' W 122°24'3 6.3
2017-Nov-16 18:00N 37°46' W 122°23'1 1.4
2017-Nov-16 17:31N 37°45' W 122°23'0 0.0
2017-Nov-16 17:00N 37°45' W 122°23'0 0.2
2017-Nov-16 16:30N 37°45' W 122°23'0 0.0
2017-Nov-16 16:00N 37°45' W 122°23'0 0.0
2017-Nov-16 15:30N 37°45' W 122°23'0 0.0
2017-Nov-16 15:00N 37°45' W 122°23'0 0.0
2017-Nov-16 14:30N 37°45' W 122°23'0 0.0
2017-Nov-16 14:00N 37°45' W 122°23'0 0.0
2017-Nov-16 13:30N 37°45' W 122°23'0 0.0
2017-Nov-16 13:00N 37°45' W 122°23'0 0.0
2017-Nov-16 12:30N 37°45' W 122°23'0 0.0
2017-Nov-16 12:00N 37°45' W 122°23'2 3.7
2017-Nov-16 11:31N 37°47' W 122°23'3 5.3
2017-Nov-16 11:00N 37°49' W 122°24'3 6.5
2017-Nov-16 10:30N 37°53' W 122°25'4 7.9
2017-Nov-16 10:00N 37°56' W 122°27'6 7.3
2017-Nov-16 09:08N 38°02' W 122°22'3 5.9
2017-Nov-16 08:43N 38°03' W 122°19'2 5.7
2017-Nov-16 08:22N 38°03' W 122°17'3 5.2
2017-Nov-16 07:51N 38°04' W 122°14'4 0.5
2017-Nov-15 23:26N 38°02' W 122°09'2 4.0
2017-Nov-15 22:50N 38°03' W 122°12'1 3.8
2017-Nov-15 22:30N 38°04' W 122°13'4 4.5
2017-Nov-15 21:39N 38°03' W 122°18'3 5.1
2017-Nov-15 21:05N 38°02' W 122°22'0 5.4
2017-Nov-15 21:00N 38°02' W 122°22'4 4.9
2017-Nov-15 20:09N 37°59' W 122°26'2 5.3
2017-Nov-15 19:43N 37°56' W 122°26'1 6.0
2017-Nov-15 19:30N 37°55' W 122°25'3 6.5
2017-Nov-15 19:00N 37°52' W 122°24'3 6.8
2017-Nov-15 18:30N 37°49' W 122°23'3 6.9
2017-Nov-15 18:00N 37°45' W 122°23'0 0.2
2017-Nov-15 17:31N 37°45' W 122°23'0 0.0
2017-Nov-15 17:01N 37°45' W 122°23'0 0.0
2017-Nov-15 16:30N 37°45' W 122°23'0 0.0
2017-Nov-15 16:00N 37°45' W 122°23'0 0.0
2017-Nov-15 15:30N 37°45' W 122°23'0 0.0
2017-Nov-15 15:00N 37°45' W 122°23'0 0.0
2017-Nov-15 14:30N 37°45' W 122°23'3 6.4
2017-Nov-15 14:00N 37°48' W 122°23'4 8.1
2017-Nov-15 13:30N 37°52' W 122°24'4 7.1
2017-Nov-15 13:00N 37°56' W 122°26'3 6.9
2017-Nov-15 12:30N 37°59' W 122°25'4 7.7
2017-Nov-15 11:57N 38°02' W 122°21'4 9.5
2017-Nov-15 11:30N 38°04' W 122°16'6 0.9
2017-Nov-15 04:37N 38°02' W 122°09'2 5.9
2017-Nov-15 04:13N 38°03' W 122°11'1 6.2
2017-Nov-15 04:00N 38°04' W 122°13'3 6.1
2017-Nov-15 03:30N 38°03' W 122°17'3 5.7
2017-Nov-15 02:53N 38°02' W 122°21'3 6.1
2017-Nov-15 02:22N 38°00' W 122°24'4 5.8
2017-Nov-15 01:40N 37°56' W 122°26'2 6.9
2017-Nov-15 01:24N 37°55' W 122°25'2 5.2
2017-Nov-15 01:00N 37°53' W 122°25'2 5.0
2017-Nov-15 00:30N 37°50' W 122°24'3 6.1
2017-Nov-15 00:00N 37°47' W 122°23'2 4.8
2017-Nov-14 23:31N 37°45' W 122°23'2 3.2
2017-Nov-14 23:00N 37°46' W 122°22'3 6.3
2017-Nov-14 22:30N 37°49' W 122°19'1 1.7
2017-Nov-14 22:01N 37°49' W 122°18'0 0.0
2017-Nov-14 21:30N 37°49' W 122°18'0 0.0
2017-Nov-14 21:00N 37°49' W 122°18'0 0.0
2017-Nov-14 20:30N 37°49' W 122°18'0 0.0
2017-Nov-14 20:01N 37°49' W 122°18'0 0.0
2017-Nov-14 19:30N 37°49' W 122°18'2 3.8
2017-Nov-14 19:00N 37°49' W 122°21'3 6.2
2017-Nov-14 18:31N 37°51' W 122°23'3 6.7
2017-Nov-14 18:00N 37°54' W 122°25'4 5.9
2017-Nov-14 17:19N 37°58' W 122°26'2 5.6
2017-Nov-14 16:55N 37°60' W 122°25'3 5.5
2017-Nov-14 16:25N 38°02' W 122°22'2 5.5
2017-Nov-14 16:00N 38°03' W 122°19'3 6.1
2017-Nov-14 15:30N 38°04' W 122°16'3 6.2
2017-Nov-14 15:00N 38°04' W 122°12'3 0.4
2017-Nov-14 08:13N 38°02' W 122°09'2 5.3
2017-Nov-14 07:46N 38°03' W 122°12'2 5.8
2017-Nov-14 07:30N 38°04' W 122°14'4 6.3
2017-Nov-14 06:56N 38°03' W 122°18'3 6.7
2017-Nov-14 06:28N 38°02' W 122°22'5 6.6
2017-Nov-14 05:42N 37°58' W 122°26'2 6.4
2017-Nov-14 05:25N 37°56' W 122°27'3 6.6
2017-Nov-14 05:00N 37°54' W 122°26'3 6.9
2017-Nov-14 04:30N 37°51' W 122°24'3 5.7
2017-Nov-14 04:01N 37°48' W 122°23'2 4.9
2017-Nov-14 03:30N 37°45' W 122°22'0 0.7
2017-Nov-14 03:00N 37°45' W 122°23'0 0.0
2017-Nov-14 02:30N 37°45' W 122°23'0 0.0
2017-Nov-14 02:00N 37°45' W 122°23'0 0.0
2017-Nov-14 01:30N 37°45' W 122°23'0 0.0
2017-Nov-14 01:00N 37°45' W 122°23'0 0.0
2017-Nov-14 00:30N 37°45' W 122°23'1 2.6
2017-Nov-14 00:00N 37°46' W 122°23'4 7.4
2017-Nov-13 23:30N 37°50' W 122°24'4 8.0
2017-Nov-13 23:00N 37°54' W 122°25'7 8.0
2017-Nov-13 22:07N 38°01' W 122°24'1 8.9
2017-Nov-13 21:57N 38°02' W 122°22'  

Dump ship's entire track history